sensor_id;sensor_type;location;lat;lon;timestamp;pressure;altitude;pressure_sealevel;temperature;humidity
41078;BME280;26823;42.662;23.352;2023-02-17T00:00:12;95679.84;;;0.16;77.21
41078;BME280;26823;42.662;23.352;2023-02-17T00:02:38;95696.69;;;0.23;77.52
41078;BME280;26823;42.662;23.352;2023-02-17T00:05:05;95694.22;;;0.22;76.87
41078;BME280;26823;42.662;23.352;2023-02-17T00:07:31;95692.56;;;0.21;77.47
41078;BME280;26823;42.662;23.352;2023-02-17T00:09:59;95684.50;;;0.14;77.69
41078;BME280;26823;42.662;23.352;2023-02-17T00:12:25;95694.34;;;0.13;77.85
41078;BME280;26823;42.662;23.352;2023-02-17T00:14:52;95679.53;;;0.04;77.57
41078;BME280;26823;42.662;23.352;2023-02-17T00:17:17;95653.81;;;-0.10;77.87
41078;BME280;26823;42.662;23.352;2023-02-17T00:19:43;95687.38;;;0.12;77.52
41078;BME280;26823;42.662;23.352;2023-02-17T00:22:08;95679.72;;;0.03;77.93
41078;BME280;26823;42.662;23.352;2023-02-17T00:24:37;95672.31;;;-0.02;78.36
41078;BME280;26823;42.662;23.352;2023-02-17T00:27:03;95655.09;;;-0.06;77.98
41078;BME280;26823;42.662;23.352;2023-02-17T00:29:29;95664.91;;;-0.07;78.14
41078;BME280;26823;42.662;23.352;2023-02-17T00:31:54;95682.19;;;0.04;78.65
41078;BME280;26823;42.662;23.352;2023-02-17T00:54:18;95660.47;;;0.01;78.59
41078;BME280;26823;42.662;23.352;2023-02-17T00:56:50;95654.78;;;-0.18;79.01
41078;BME280;26823;42.662;23.352;2023-02-17T00:59:16;95652.25;;;-0.05;79.14
41078;BME280;26823;42.662;23.352;2023-02-17T01:01:41;95645.72;;;-0.02;78.75
41078;BME280;26823;42.662;23.352;2023-02-17T01:04:06;95661.47;;;-0.01;78.75
41078;BME280;26823;42.662;23.352;2023-02-17T01:06:34;95653.69;;;-0.02;78.89
41078;BME280;26823;42.662;23.352;2023-02-17T01:09:00;95652.03;;;-0.03;78.86
41078;BME280;26823;42.662;23.352;2023-02-17T01:11:28;95649.88;;;0.07;78.68
41078;BME280;26823;42.662;23.352;2023-02-17T01:13:55;95650.53;;;0.09;78.84
41078;BME280;26823;42.662;23.352;2023-02-17T01:16:25;95644.06;;;-0.03;78.64
41078;BME280;26823;42.662;23.352;2023-02-17T01:18:52;95645.16;;;0.03;78.04
41078;BME280;26823;42.662;23.352;2023-02-17T01:21:22;95655.00;;;0.09;78.18
41078;BME280;26823;42.662;23.352;2023-02-17T01:23:49;95643.94;;;0.05;77.88
41078;BME280;26823;42.662;23.352;2023-02-17T01:26:17;95641.03;;;0.00;78.02
41078;BME280;26823;42.662;23.352;2023-02-17T01:28:43;95649.38;;;-0.03;78.41
41078;BME280;26823;42.662;23.352;2023-02-17T01:31:10;95630.84;;;-0.18;78.49
41078;BME280;26823;42.662;23.352;2023-02-17T01:33:36;95626.28;;;-0.24;79.26
41078;BME280;26823;42.662;23.352;2023-02-17T01:36:05;95631.03;;;-0.20;79.02
41078;BME280;26823;42.662;23.352;2023-02-17T01:38:32;95618.19;;;-0.16;78.86
41078;BME280;26823;42.662;23.352;2023-02-17T01:40:58;95641.34;;;-0.10;79.08
41078;BME280;26823;42.662;23.352;2023-02-17T01:43:23;95630.41;;;-0.22;79.40
41078;BME280;26823;42.662;23.352;2023-02-17T01:45:53;95621.47;;;-0.36;80.03
41078;BME280;26823;42.662;23.352;2023-02-17T01:48:29;95639.22;;;-0.21;79.25
41078;BME280;26823;42.662;23.352;2023-02-17T01:51:00;95637.38;;;-0.21;79.62
41078;BME280;26823;42.662;23.352;2023-02-17T01:53:32;95637.16;;;-0.19;79.88
41078;BME280;26823;42.662;23.352;2023-02-17T01:55:58;95637.06;;;-0.32;79.66
41078;BME280;26823;42.662;23.352;2023-02-17T01:58:25;95634.34;;;-0.39;79.52
41078;BME280;26823;42.662;23.352;2023-02-17T02:00:54;95641.47;;;-0.40;80.37
41078;BME280;26823;42.662;23.352;2023-02-17T02:03:20;95640.09;;;-0.36;79.84
41078;BME280;26823;42.662;23.352;2023-02-17T02:05:46;95625.09;;;-0.43;80.02
41078;BME280;26823;42.662;23.352;2023-02-17T02:08:13;95629.31;;;-0.71;80.26
41078;BME280;26823;42.662;23.352;2023-02-17T02:10:39;95628.41;;;-1.15;81.26
41078;BME280;26823;42.662;23.352;2023-02-17T02:13:05;95644.66;;;-0.88;81.64
41078;BME280;26823;42.662;23.352;2023-02-17T02:15:53;95645.50;;;-1.02;81.46
41078;BME280;26823;42.662;23.352;2023-02-17T02:18:32;95619.88;;;-0.73;80.62
41078;BME280;26823;42.662;23.352;2023-02-17T02:23:51;95631.03;;;-0.63;80.51
41078;BME280;26823;42.662;23.352;2023-02-17T02:34:59;95628.75;;;-0.66;79.69
41078;BME280;26823;42.662;23.352;2023-02-17T02:40:28;95626.06;;;-0.66;79.47
41078;BME280;26823;42.662;23.352;2023-02-17T02:42:55;95636.34;;;-0.63;79.39
41078;BME280;26823;42.662;23.352;2023-02-17T02:45:21;95630.44;;;-0.80;80.33
41078;BME280;26823;42.662;23.352;2023-02-17T02:47:54;95637.75;;;-0.67;80.14
41078;BME280;26823;42.662;23.352;2023-02-17T02:55:40;95635.69;;;-0.65;79.70
41078;BME280;26823;42.662;23.352;2023-02-17T02:58:13;95629.47;;;-0.72;80.75
41078;BME280;26823;42.662;23.352;2023-02-17T03:03:23;95630.63;;;-0.82;81.59
41078;BME280;26823;42.662;23.352;2023-02-17T03:08:47;95633.50;;;-0.61;81.36
41078;BME280;26823;42.662;23.352;2023-02-17T03:11:15;95629.41;;;-0.79;81.08
41078;BME280;26823;42.662;23.352;2023-02-17T03:14:00;95647.34;;;-0.66;80.93
41078;BME280;26823;42.662;23.352;2023-02-17T03:16:26;95624.72;;;-0.62;80.78
41078;BME280;26823;42.662;23.352;2023-02-17T03:18:52;95626.47;;;-0.69;81.32
41078;BME280;26823;42.662;23.352;2023-02-17T03:21:18;95615.31;;;-0.79;81.02
41078;BME280;26823;42.662;23.352;2023-02-17T03:23:43;95633.31;;;-0.60;80.72
41078;BME280;26823;42.662;23.352;2023-02-17T03:26:08;95614.13;;;-0.77;81.20
41078;BME280;26823;42.662;23.352;2023-02-17T03:28:34;95626.66;;;-0.71;80.89
41078;BME280;26823;42.662;23.352;2023-02-17T03:30:59;95634.66;;;-0.86;81.88
41078;BME280;26823;42.662;23.352;2023-02-17T03:33:25;95631.00;;;-0.85;82.38
41078;BME280;26823;42.662;23.352;2023-02-17T03:35:50;95643.16;;;-0.75;81.96
41078;BME280;26823;42.662;23.352;2023-02-17T03:38:15;95630.53;;;-0.73;81.63
41078;BME280;26823;42.662;23.352;2023-02-17T03:40:41;95636.66;;;-0.73;81.68
41078;BME280;26823;42.662;23.352;2023-02-17T03:43:06;95630.31;;;-0.72;81.67
41078;BME280;26823;42.662;23.352;2023-02-17T03:45:35;95623.03;;;-0.85;81.76
41078;BME280;26823;42.662;23.352;2023-02-17T03:48:00;95607.16;;;-0.78;81.65
41078;BME280;26823;42.662;23.352;2023-02-17T03:50:26;95609.44;;;-0.75;81.36
41078;BME280;26823;42.662;23.352;2023-02-17T03:52:51;95608.06;;;-0.71;80.85
41078;BME280;26823;42.662;23.352;2023-02-17T03:55:17;95616.84;;;-0.70;80.49
41078;BME280;26823;42.662;23.352;2023-02-17T03:57:42;95622.22;;;-0.63;79.95
41078;BME280;26823;42.662;23.352;2023-02-17T04:00:08;95615.59;;;-0.74;79.99
41078;BME280;26823;42.662;23.352;2023-02-17T04:02:34;95632.06;;;-0.79;80.37
41078;BME280;26823;42.662;23.352;2023-02-17T04:05:00;95619.88;;;-0.73;80.16
41078;BME280;26823;42.662;23.352;2023-02-17T04:07:25;95622.81;;;-0.68;80.35
41078;BME280;26823;42.662;23.352;2023-02-17T04:09:50;95624.78;;;-0.55;79.92
41078;BME280;26823;42.662;23.352;2023-02-17T04:12:16;95613.94;;;-0.75;79.85
41078;BME280;26823;42.662;23.352;2023-02-17T04:14:41;95627.22;;;-0.75;80.43
41078;BME280;26823;42.662;23.352;2023-02-17T04:17:07;95625.94;;;-0.79;80.69
41078;BME280;26823;42.662;23.352;2023-02-17T04:19:32;95601.13;;;-0.87;80.73
41078;BME280;26823;42.662;23.352;2023-02-17T04:21:57;95619.41;;;-0.62;80.36
41078;BME280;26823;42.662;23.352;2023-02-17T04:24:23;95608.22;;;-0.72;79.96
41078;BME280;26823;42.662;23.352;2023-02-17T04:26:48;95641.47;;;-0.98;82.11
41078;BME280;26823;42.662;23.352;2023-02-17T04:29:14;95649.41;;;-0.83;82.02
41078;BME280;26823;42.662;23.352;2023-02-17T04:31:39;95631.69;;;-0.97;82.30
41078;BME280;26823;42.662;23.352;2023-02-17T04:34:04;95632.09;;;-0.94;82.45
41078;BME280;26823;42.662;23.352;2023-02-17T04:36:30;95635.75;;;-0.80;82.47
41078;BME280;26823;42.662;23.352;2023-02-17T04:38:55;95622.03;;;-0.84;81.93
41078;BME280;26823;42.662;23.352;2023-02-17T04:41:21;95641.00;;;-0.65;81.36
41078;BME280;26823;42.662;23.352;2023-02-17T04:43:46;95635.25;;;-0.69;81.34
41078;BME280;26823;42.662;23.352;2023-02-17T04:46:12;95623.81;;;-0.69;80.93
41078;BME280;26823;42.662;23.352;2023-02-17T04:48:37;95635.00;;;-0.74;80.41
41078;BME280;26823;42.662;23.352;2023-02-17T04:51:03;95620.63;;;-0.79;80.53
41078;BME280;26823;42.662;23.352;2023-02-17T04:53:28;95628.91;;;-0.89;81.76
41078;BME280;26823;42.662;23.352;2023-02-17T04:55:54;95643.81;;;-0.73;81.64
41078;BME280;26823;42.662;23.352;2023-02-17T04:58:20;95627.41;;;-0.77;81.31
41078;BME280;26823;42.662;23.352;2023-02-17T05:00:47;95631.53;;;-0.74;81.25
41078;BME280;26823;42.662;23.352;2023-02-17T05:03:17;95635.34;;;-0.99;82.62
41078;BME280;26823;42.662;23.352;2023-02-17T05:05:42;95623.97;;;-0.92;82.32
41078;BME280;26823;42.662;23.352;2023-02-17T05:08:07;95623.41;;;-1.03;82.74
41078;BME280;26823;42.662;23.352;2023-02-17T05:10:33;95647.81;;;-1.14;83.57
41078;BME280;26823;42.662;23.352;2023-02-17T05:12:58;95637.28;;;-1.07;82.91
41078;BME280;26823;42.662;23.352;2023-02-17T05:15:24;95666.25;;;-0.76;82.59
41078;BME280;26823;42.662;23.352;2023-02-17T05:17:49;95652.91;;;-0.61;81.72
41078;BME280;26823;42.662;23.352;2023-02-17T05:20:15;95632.00;;;-0.86;82.41
41078;BME280;26823;42.662;23.352;2023-02-17T05:22:40;95632.69;;;-0.62;81.32
41078;BME280;26823;42.662;23.352;2023-02-17T05:25:06;95648.88;;;-0.57;80.94
41078;BME280;26823;42.662;23.352;2023-02-17T05:27:32;95677.28;;;-0.57;81.18
41078;BME280;26823;42.662;23.352;2023-02-17T05:29:58;95656.19;;;-0.80;81.63
41078;BME280;26823;42.662;23.352;2023-02-17T05:32:24;95673.56;;;-0.63;81.52
41078;BME280;26823;42.662;23.352;2023-02-17T05:34:49;95660.19;;;-0.70;81.87
41078;BME280;26823;42.662;23.352;2023-02-17T05:37:14;95687.09;;;-0.58;81.56
41078;BME280;26823;42.662;23.352;2023-02-17T05:39:40;95653.56;;;-0.59;81.22
41078;BME280;26823;42.662;23.352;2023-02-17T05:42:05;95670.38;;;-0.37;80.39
41078;BME280;26823;42.662;23.352;2023-02-17T05:44:31;95668.97;;;-0.69;81.54
41078;BME280;26823;42.662;23.352;2023-02-17T05:47:02;95676.72;;;-0.53;81.95
41078;BME280;26823;42.662;23.352;2023-02-17T05:49:27;95692.41;;;-0.21;80.77
41078;BME280;26823;42.662;23.352;2023-02-17T05:51:53;95681.81;;;-0.14;80.69
41078;BME280;26823;42.662;23.352;2023-02-17T05:54:18;95700.63;;;0.06;79.98
41078;BME280;26823;42.662;23.352;2023-02-17T05:56:44;95689.25;;;0.19;78.64
41078;BME280;26823;42.662;23.352;2023-02-17T05:59:16;95695.91;;;0.29;78.32
41078;BME280;26823;42.662;23.352;2023-02-17T06:01:41;95680.97;;;0.28;78.18
41078;BME280;26823;42.662;23.352;2023-02-17T06:04:07;95685.84;;;0.25;78.24
41078;BME280;26823;42.662;23.352;2023-02-17T06:06:32;95676.38;;;0.44;77.64
41078;BME280;26823;42.662;23.352;2023-02-17T06:08:58;95694.19;;;0.78;77.64
41078;BME280;26823;42.662;23.352;2023-02-17T06:11:23;95681.44;;;1.02;75.19
41078;BME280;26823;42.662;23.352;2023-02-17T06:13:49;95697.31;;;1.72;73.47
41078;BME280;26823;42.662;23.352;2023-02-17T06:16:17;95692.66;;;2.15;70.74
41078;BME280;26823;42.662;23.352;2023-02-17T06:18:42;95689.16;;;2.21;68.83
41078;BME280;26823;42.662;23.352;2023-02-17T06:21:08;95718.13;;;2.51;69.00
41078;BME280;26823;42.662;23.352;2023-02-17T06:23:33;95707.63;;;2.29;68.29
41078;BME280;26823;42.662;23.352;2023-02-17T06:25:58;95680.75;;;2.31;70.13
41078;BME280;26823;42.662;23.352;2023-02-17T06:28:24;95707.63;;;2.83;69.03
41078;BME280;26823;42.662;23.352;2023-02-17T06:30:49;95691.84;;;2.48;67.98
41078;BME280;26823;42.662;23.352;2023-02-17T06:33:15;95680.06;;;2.96;67.07
41078;BME280;26823;42.662;23.352;2023-02-17T06:35:40;95709.97;;;4.22;64.23
41078;BME280;26823;42.662;23.352;2023-02-17T06:38:06;95709.47;;;4.57;59.51
41078;BME280;26823;42.662;23.352;2023-02-17T06:40:31;95700.84;;;4.55;58.94
41078;BME280;26823;42.662;23.352;2023-02-17T06:42:57;95714.28;;;5.73;56.20
41078;BME280;26823;42.662;23.352;2023-02-17T06:45:22;95702.91;;;5.90;53.67
41078;BME280;26823;42.662;23.352;2023-02-17T06:47:48;95722.84;;;6.31;53.08
41078;BME280;26823;42.662;23.352;2023-02-17T06:50:13;95727.22;;;6.67;52.16
41078;BME280;26823;42.662;23.352;2023-02-17T06:52:40;95721.66;;;6.81;50.96
41078;BME280;26823;42.662;23.352;2023-02-17T06:55:05;95726.59;;;6.30;52.37
41078;BME280;26823;42.662;23.352;2023-02-17T06:57:31;95737.59;;;6.10;52.78
41078;BME280;26823;42.662;23.352;2023-02-17T06:59:56;95731.53;;;5.65;53.24
41078;BME280;26823;42.662;23.352;2023-02-17T07:02:22;95726.94;;;5.84;54.09
41078;BME280;26823;42.662;23.352;2023-02-17T07:04:47;95735.78;;;6.76;50.88
41078;BME280;26823;42.662;23.352;2023-02-17T07:07:13;95736.63;;;7.48;48.17
41078;BME280;26823;42.662;23.352;2023-02-17T07:09:38;95720.25;;;8.19;47.52
41078;BME280;26823;42.662;23.352;2023-02-17T07:12:04;95736.41;;;9.11;44.33
41078;BME280;26823;42.662;23.352;2023-02-17T07:14:31;95740.59;;;9.41;42.40
41078;BME280;26823;42.662;23.352;2023-02-17T07:16:57;95735.31;;;9.68;42.02
41078;BME280;26823;42.662;23.352;2023-02-17T07:19:22;95743.59;;;9.61;41.61
41078;BME280;26823;42.662;23.352;2023-02-17T07:21:47;95748.22;;;9.83;40.64
41078;BME280;26823;42.662;23.352;2023-02-17T07:24:13;95734.66;;;9.61;41.27
41078;BME280;26823;42.662;23.352;2023-02-17T07:26:39;95748.06;;;9.95;41.07
41078;BME280;26823;42.662;23.352;2023-02-17T07:29:05;95750.53;;;9.74;41.42
41078;BME280;26823;42.662;23.352;2023-02-17T07:31:31;95736.78;;;10.75;38.84
41078;BME280;26823;42.662;23.352;2023-02-17T07:34:00;95737.75;;;9.70;41.63
41078;BME280;26823;42.662;23.352;2023-02-17T07:36:26;95737.44;;;10.87;38.91
41078;BME280;26823;42.662;23.352;2023-02-17T07:38:51;95736.66;;;11.78;37.47
41078;BME280;26823;42.662;23.352;2023-02-17T07:41:19;95755.84;;;12.09;36.97
41078;BME280;26823;42.662;23.352;2023-02-17T07:43:46;95754.38;;;13.26;34.20
41078;BME280;26823;42.662;23.352;2023-02-17T07:46:13;95762.53;;;12.90;34.67
41078;BME280;26823;42.662;23.352;2023-02-17T07:48:38;95754.59;;;12.52;35.62
41078;BME280;26823;42.662;23.352;2023-02-17T07:51:05;95745.88;;;12.40;34.22
41078;BME280;26823;42.662;23.352;2023-02-17T07:53:32;95743.91;;;14.11;32.52
41078;BME280;26823;42.662;23.352;2023-02-17T07:55:57;95741.53;;;14.49;31.84
41078;BME280;26823;42.662;23.352;2023-02-17T07:58:23;95732.88;;;15.56;29.71
41078;BME280;26823;42.662;23.352;2023-02-17T08:00:48;95733.13;;;15.89;30.03
41078;BME280;26823;42.662;23.352;2023-02-17T08:03:13;95747.66;;;16.27;28.07
41078;BME280;26823;42.662;23.352;2023-02-17T08:05:39;95743.66;;;17.20;27.08
41078;BME280;26823;42.662;23.352;2023-02-17T08:08:06;95738.94;;;17.40;26.87
41078;BME280;26823;42.662;23.352;2023-02-17T08:10:50;95749.31;;;17.24;27.11
41078;BME280;26823;42.662;23.352;2023-02-17T08:13:34;95751.13;;;17.95;26.33
41078;BME280;26823;42.662;23.352;2023-02-17T08:15:59;95750.25;;;17.66;26.83
41078;BME280;26823;42.662;23.352;2023-02-17T08:18:25;95755.41;;;18.29;26.14
41078;BME280;26823;42.662;23.352;2023-02-17T08:20:50;95749.22;;;17.95;27.08
41078;BME280;26823;42.662;23.352;2023-02-17T08:23:19;95740.34;;;16.66;27.33
41078;BME280;26823;42.662;23.352;2023-02-17T08:25:45;95732.59;;;15.87;28.72
41078;BME280;26823;42.662;23.352;2023-02-17T08:28:11;95739.44;;;15.84;29.31
41078;BME280;26823;42.662;23.352;2023-02-17T08:30:36;95735.28;;;16.35;28.72
41078;BME280;26823;42.662;23.352;2023-02-17T08:33:03;95727.75;;;16.27;28.79
41078;BME280;26823;42.662;23.352;2023-02-17T08:35:29;95726.91;;;16.26;28.62
41078;BME280;26823;42.662;23.352;2023-02-17T08:37:55;95714.03;;;16.32;28.26
41078;BME280;26823;42.662;23.352;2023-02-17T08:40:20;95729.47;;;15.10;30.24
41078;BME280;26823;42.662;23.352;2023-02-17T08:42:46;95727.94;;;16.11;29.19
41078;BME280;26823;42.662;23.352;2023-02-17T08:45:13;95734.22;;;15.29;29.67
41078;BME280;26823;42.662;23.352;2023-02-17T08:47:39;95731.06;;;15.46;30.04
41078;BME280;26823;42.662;23.352;2023-02-17T08:50:05;95704.69;;;15.95;29.94
41078;BME280;26823;42.662;23.352;2023-02-17T08:52:30;95731.47;;;17.12;28.28
41078;BME280;26823;42.662;23.352;2023-02-17T08:54:56;95733.09;;;16.75;28.09
41078;BME280;26823;42.662;23.352;2023-02-17T08:57:21;95729.28;;;16.95;26.96
41078;BME280;26823;42.662;23.352;2023-02-17T08:59:48;95731.28;;;18.31;26.01
41078;BME280;26823;42.662;23.352;2023-02-17T09:02:14;95731.66;;;17.96;25.85
41078;BME280;26823;42.662;23.352;2023-02-17T09:04:40;95720.44;;;18.90;25.01
41078;BME280;26823;42.662;23.352;2023-02-17T09:07:09;95733.84;;;18.64;25.20
41078;BME280;26823;42.662;23.352;2023-02-17T09:09:34;95726.53;;;19.10;25.17
41078;BME280;26823;42.662;23.352;2023-02-17T09:11:59;95728.28;;;19.28;25.04
41078;BME280;26823;42.662;23.352;2023-02-17T09:14:26;95714.38;;;17.68;25.89
41078;BME280;26823;42.662;23.352;2023-02-17T09:16:52;95709.75;;;16.64;27.26
41078;BME280;26823;42.662;23.352;2023-02-17T09:19:22;95713.28;;;17.22;26.97
41078;BME280;26823;42.662;23.352;2023-02-17T09:21:48;95727.34;;;18.09;26.12
41078;BME280;26823;42.662;23.352;2023-02-17T09:24:15;95711.81;;;18.04;26.10
41078;BME280;26823;42.662;23.352;2023-02-17T09:26:40;95712.66;;;17.72;26.12
41078;BME280;26823;42.662;23.352;2023-02-17T09:29:09;95694.22;;;17.64;26.65
41078;BME280;26823;42.662;23.352;2023-02-17T09:31:35;95720.22;;;17.94;26.26
41078;BME280;26823;42.662;23.352;2023-02-17T09:34:01;95714.75;;;18.72;25.08
41078;BME280;26823;42.662;23.352;2023-02-17T09:36:30;95721.03;;;18.22;25.67
41078;BME280;26823;42.662;23.352;2023-02-17T09:38:56;95704.41;;;18.05;25.78
41078;BME280;26823;42.662;23.352;2023-02-17T09:41:36;95679.22;;;17.47;26.28
41078;BME280;26823;42.662;23.352;2023-02-17T09:44:23;95714.31;;;18.93;21.70
41078;BME280;26823;42.662;23.352;2023-02-17T09:47:17;95718.31;;;18.73;21.96
41078;BME280;26823;42.662;23.352;2023-02-17T09:49:59;95697.56;;;18.81;21.57
41078;BME280;26823;42.662;23.352;2023-02-17T09:55:26;95701.38;;;19.62;21.37
41078;BME280;26823;42.662;23.352;2023-02-17T09:58:05;95707.75;;;20.78;19.54
41078;BME280;26823;42.662;23.352;2023-02-17T10:00:45;95698.50;;;20.82;18.60
41078;BME280;26823;42.662;23.352;2023-02-17T10:03:52;95697.47;;;20.34;19.57
41078;BME280;26823;42.662;23.352;2023-02-17T10:06:25;95698.84;;;19.74;19.76
41078;BME280;26823;42.662;23.352;2023-02-17T10:11:32;95705.31;;;21.11;27.66
41078;BME280;26823;42.662;23.352;2023-02-17T10:14:03;95697.34;;;21.54;20.29
41078;BME280;26823;42.662;23.352;2023-02-17T10:16:44;95685.72;;;22.25;18.61
41078;BME280;26823;42.662;23.352;2023-02-17T10:19:15;95688.09;;;23.29;22.06
41078;BME280;26823;42.662;23.352;2023-02-17T10:21:50;95683.91;;;24.52;23.71
41078;BME280;26823;42.662;23.352;2023-02-17T10:24:22;95679.56;;;24.14;25.16
41078;BME280;26823;42.662;23.352;2023-02-17T10:27:07;95675.78;;;23.72;23.62
41078;BME280;26823;42.662;23.352;2023-02-17T10:32:31;95666.06;;;24.24;26.45
41078;BME280;26823;42.662;23.352;2023-02-17T10:40:19;95661.94;;;24.06;16.54
41078;BME280;26823;42.662;23.352;2023-02-17T10:42:47;95659.50;;;24.54;18.91
41078;BME280;26823;42.662;23.352;2023-02-17T10:48:06;95648.28;;;24.63;16.50
41078;BME280;26823;42.662;23.352;2023-02-17T10:50:34;95651.53;;;25.34;19.54
41078;BME280;26823;42.662;23.352;2023-02-17T10:53:14;95638.75;;;26.05;19.48
41078;BME280;26823;42.662;23.352;2023-02-17T11:00:58;95639.69;;;26.45;15.96
41078;BME280;26823;42.662;23.352;2023-02-17T11:03:28;95632.00;;;25.43;18.15
41078;BME280;26823;42.662;23.352;2023-02-17T11:05:58;95632.88;;;23.87;15.72
41078;BME280;26823;42.662;23.352;2023-02-17T11:11:03;95631.44;;;24.27;15.85
41078;BME280;26823;42.662;23.352;2023-02-17T11:13:34;95628.28;;;22.36;17.07
41078;BME280;26823;42.662;23.352;2023-02-17T11:16:00;95620.84;;;22.37;17.00
41078;BME280;26823;42.662;23.352;2023-02-17T11:18:35;95630.75;;;23.35;16.43
41078;BME280;26823;42.662;23.352;2023-02-17T11:21:08;95619.78;;;24.09;15.49
41078;BME280;26823;42.662;23.352;2023-02-17T11:23:46;95618.84;;;23.80;16.22
41078;BME280;26823;42.662;23.352;2023-02-17T11:26:21;95631.41;;;22.56;17.02
41078;BME280;26823;42.662;23.352;2023-02-17T11:28:47;95612.25;;;22.80;16.68
41078;BME280;26823;42.662;23.352;2023-02-17T11:31:25;95612.59;;;22.58;17.10
41078;BME280;26823;42.662;23.352;2023-02-17T11:33:51;95616.22;;;21.98;17.59
41078;BME280;26823;42.662;23.352;2023-02-17T11:38:48;95602.06;;;22.60;17.15
41078;BME280;26823;42.662;23.352;2023-02-17T11:41:13;95610.34;;;22.00;17.51
41078;BME280;26823;42.662;23.352;2023-02-17T11:43:53;95593.06;;;22.21;17.87
41078;BME280;26823;42.662;23.352;2023-02-17T11:54:30;95597.06;;;22.74;17.45
41078;BME280;26823;42.662;23.352;2023-02-17T12:03:17;95595.16;;;22.87;17.21
41078;BME280;26823;42.662;23.352;2023-02-17T12:05:53;95581.94;;;22.80;16.98
41078;BME280;26823;42.662;23.352;2023-02-17T12:11:35;95588.22;;;22.81;17.54
41078;BME280;26823;42.662;23.352;2023-02-17T12:17:18;95551.78;;;21.61;18.36
41078;BME280;26823;42.662;23.352;2023-02-17T12:20:04;95561.41;;;22.27;18.06
41078;BME280;26823;42.662;23.352;2023-02-17T12:35:43;95545.34;;;21.57;18.52
41078;BME280;26823;42.662;23.352;2023-02-17T12:38:14;95551.19;;;21.55;21.97
41078;BME280;26823;42.662;23.352;2023-02-17T12:40:46;95526.91;;;21.01;19.28
41078;BME280;26823;42.662;23.352;2023-02-17T12:43:31;95542.16;;;21.37;20.29
41078;BME280;26823;42.662;23.352;2023-02-17T12:46:03;95529.44;;;21.24;19.21
41078;BME280;26823;42.662;23.352;2023-02-17T12:48:35;95525.97;;;20.88;19.57
41078;BME280;26823;42.662;23.352;2023-02-17T12:51:26;95506.56;;;19.62;20.76
41078;BME280;26823;42.662;23.352;2023-02-17T12:59:34;95487.88;;;18.06;22.23
41078;BME280;26823;42.662;23.352;2023-02-17T13:02:09;95524.25;;;19.96;20.52
41078;BME280;26823;42.662;23.352;2023-02-17T13:04:36;95505.84;;;20.31;22.19
41078;BME280;26823;42.662;23.352;2023-02-17T13:09:52;95511.50;;;20.17;23.85
41078;BME280;26823;42.662;23.352;2023-02-17T13:14:58;95510.16;;;19.22;21.46
41078;BME280;26823;42.662;23.352;2023-02-17T13:17:28;95514.03;;;19.21;21.32
41078;BME280;26823;42.662;23.352;2023-02-17T13:20:11;95505.53;;;19.40;21.20
41078;BME280;26823;42.662;23.352;2023-02-17T13:22:47;95510.69;;;19.42;20.97
41078;BME280;26823;42.662;23.352;2023-02-17T13:25:27;95509.78;;;19.55;21.08
41078;BME280;26823;42.662;23.352;2023-02-17T13:27:53;95506.72;;;19.07;21.52
41078;BME280;26823;42.662;23.352;2023-02-17T13:33:06;95497.44;;;19.93;
41078;BME280;26823;42.662;23.352;2023-02-17T13:35:39;95496.81;;;20.31;26.42
41078;BME280;26823;42.662;23.352;2023-02-17T13:38:04;95500.69;;;19.28;21.51
41078;BME280;26823;42.662;23.352;2023-02-17T13:40:38;95490.00;;;18.86;21.54
41078;BME280;26823;42.662;23.352;2023-02-17T13:43:42;95502.38;;;19.64;24.81
41078;BME280;26823;42.662;23.352;2023-02-17T13:46:18;95497.13;;;20.03;20.32
41078;BME280;26823;42.662;23.352;2023-02-17T13:49:00;95496.63;;;19.83;24.60
41078;BME280;26823;42.662;23.352;2023-02-17T13:51:29;95481.78;;;18.55;21.36
41078;BME280;26823;42.662;23.352;2023-02-17T13:53:56;95490.00;;;19.18;21.61
41078;BME280;26823;42.662;23.352;2023-02-17T13:56:26;95508.91;;;20.03;25.22
41078;BME280;26823;42.662;23.352;2023-02-17T13:58:52;95508.22;;;19.80;23.54
41078;BME280;26823;42.662;23.352;2023-02-17T14:01:22;95496.78;;;19.96;20.77
41078;BME280;26823;42.662;23.352;2023-02-17T14:03:53;95483.25;;;19.99;21.26
41078;BME280;26823;42.662;23.352;2023-02-17T14:06:29;95509.31;;;19.70;21.28
41078;BME280;26823;42.662;23.352;2023-02-17T14:08:56;95485.09;;;19.06;20.93
41078;BME280;26823;42.662;23.352;2023-02-17T14:11:25;95499.09;;;19.36;19.56
41078;BME280;26823;42.662;23.352;2023-02-17T14:13:54;95481.81;;;19.44;21.05
41078;BME280;26823;42.662;23.352;2023-02-17T14:16:36;95491.31;;;18.89;21.12
41078;BME280;26823;42.662;23.352;2023-02-17T14:19:06;95499.50;;;19.12;22.94
41078;BME280;26823;42.662;23.352;2023-02-17T14:21:34;95499.56;;;18.66;22.36
41078;BME280;26823;42.662;23.352;2023-02-17T14:24:38;95489.88;;;18.92;20.93
41078;BME280;26823;42.662;23.352;2023-02-17T14:27:26;95500.56;;;18.25;24.65
41078;BME280;26823;42.662;23.352;2023-02-17T14:29:54;95510.28;;;18.31;24.48
41078;BME280;26823;42.662;23.352;2023-02-17T14:32:31;95506.03;;;16.96;22.92
41078;BME280;26823;42.662;23.352;2023-02-17T14:35:38;95432.84;;;16.65;27.11
41078;BME280;26823;42.662;23.352;2023-02-17T14:38:39;95484.00;;;16.92;23.71
41078;BME280;26823;42.662;23.352;2023-02-17T14:41:13;95493.97;;;16.97;25.06
41078;BME280;26823;42.662;23.352;2023-02-17T14:43:46;95494.97;;;16.73;23.70
41078;BME280;26823;42.662;23.352;2023-02-17T14:46:14;95501.72;;;16.10;24.81
41078;BME280;26823;42.662;23.352;2023-02-17T14:48:52;95492.91;;;15.99;25.18
41078;BME280;26823;42.662;23.352;2023-02-17T14:51:33;95497.59;;;16.12;24.87
41078;BME280;26823;42.662;23.352;2023-02-17T14:54:31;95415.38;;;15.67;26.12
41078;BME280;26823;42.662;23.352;2023-02-17T14:57:12;95500.28;;;16.18;25.67
41078;BME280;26823;42.662;23.352;2023-02-17T14:59:38;95478.66;;;15.45;26.44
41078;BME280;26823;42.662;23.352;2023-02-17T15:02:13;95498.66;;;15.78;28.72